NJE011 LEMH-LFPB
Flight info
| Callsign | NJE011 |
|---|---|
| Flight time | 1h 38m |
| Altitude | 43000 |
| Route | LUNIK DCT LUKEV DCT PUMAL DCT NARAK DCT PEPAX/N0504F300 UT182 KEPER |
| Aircraft | C750/M-SBDE3FGHRWXY/S |
Departure
| Time | 2026-04-15 21:52 |
|---|---|
| Airport | Menorca Airport (LEMH) |
Arrival
| Time | 2026-04-15 23:31 |
|---|---|
| Airport | Paris-Le Bourget International Airport (LFPB) |
| Time | Latitude | Longitude | Altitude | Speed | Heading |
|---|---|---|---|---|---|
| 2026-04-15 21:30 | 39.86064 | 4.22278 | 283 ft | 0 kts | 9° |
| 2026-04-15 21:46 | 39.86068 | 4.22279 | 283 ft | 3 kts | 9° |
| 2026-04-15 21:46 | 39.86123 | 4.22290 | 283 ft | 14 kts | 9° |
| 2026-04-15 21:46 | 39.86177 | 4.22243 | 285 ft | 8 kts | 290° |
| 2026-04-15 21:46 | 39.86190 | 4.22179 | 287 ft | 8 kts | 279° |
| 2026-04-15 21:47 | 39.86159 | 4.22091 | 292 ft | 16 kts | 202° |
| 2026-04-15 21:47 | 39.86016 | 4.22058 | 292 ft | 27 kts | 188° |
| 2026-04-15 21:47 | 39.85780 | 4.22013 | 289 ft | 42 kts | 188° |
| 2026-04-15 21:47 | 39.85466 | 4.21950 | 280 ft | 46 kts | 189° |
| 2026-04-15 21:48 | 39.85181 | 4.21889 | 277 ft | 37 kts | 189° |
| 2026-04-15 21:48 | 39.85071 | 4.21841 | 276 ft | 6 kts | 238° |
| 2026-04-15 21:48 | 39.85065 | 4.21809 | 276 ft | 2 kts | 278° |
| 2026-04-15 21:48 | 39.85066 | 4.21797 | 276 ft | 0 kts | 278° |
| 2026-04-15 21:50 | 39.85072 | 4.21776 | 277 ft | 8 kts | 294° |
| 2026-04-15 21:50 | 39.85124 | 4.21687 | 281 ft | 13 kts | 311° |
| 2026-04-15 21:51 | 39.85190 | 4.21646 | 282 ft | 10 kts | 1° |
| 2026-04-15 21:51 | 39.85309 | 4.21675 | 282 ft | 36 kts | 10° |
| 2026-04-15 21:51 | 39.85766 | 4.21764 | 295 ft | 90 kts | 6° |
| 2026-04-15 21:51 | 39.86476 | 4.21913 | 299 ft | 115 kts | 8° |
| 2026-04-15 21:52 | 39.87298 | 4.22104 | 436 ft | 123 kts | 18° |
| 2026-04-15 21:52 | 39.88116 | 4.22665 | 856 ft | 144 kts | 25° |
| 2026-04-15 21:52 | 39.89194 | 4.22707 | 1105 ft | 175 kts | 350° |
| 2026-04-15 21:52 | 39.90506 | 4.22694 | 1520 ft | 201 kts | 4° |
| 2026-04-15 21:53 | 39.91986 | 4.23014 | 2071 ft | 227 kts | 8° |
| 2026-04-15 21:53 | 39.93616 | 4.23396 | 2858 ft | 242 kts | 8° |
| 2026-04-15 21:53 | 39.95262 | 4.23738 | 4102 ft | 238 kts | 9° |
| 2026-04-15 21:53 | 39.96909 | 4.24070 | 5084 ft | 246 kts | 9° |
| 2026-04-15 21:54 | 39.98622 | 4.24462 | 6019 ft | 251 kts | 12° |
| 2026-04-15 21:54 | 40.00379 | 4.24687 | 6854 ft | 261 kts | 353° |
| 2026-04-15 21:54 | 40.01980 | 4.23570 | 7809 ft | 270 kts | 317° |
| 2026-04-15 21:54 | 40.02859 | 4.21383 | 8879 ft | 282 kts | 285° |
| 2026-04-15 21:55 | 40.02680 | 4.18803 | 9860 ft | 296 kts | 253° |
| 2026-04-15 21:55 | 40.01784 | 4.16400 | 10628 ft | 304 kts | 247° |
| 2026-04-15 21:55 | 40.00844 | 4.13816 | 10915 ft | 326 kts | 250° |
| 2026-04-15 21:55 | 40.00498 | 4.10822 | 10900 ft | 348 kts | 277° |
| 2026-04-15 21:56 | 40.01341 | 4.07883 | 11414 ft | 346 kts | 305° |
| 2026-04-15 21:56 | 40.02814 | 4.05430 | 12237 ft | 344 kts | 314° |
| 2026-04-15 21:56 | 40.04442 | 4.03124 | 12930 ft | 347 kts | 316° |
| 2026-04-15 21:56 | 40.06070 | 4.00755 | 13634 ft | 352 kts | 313° |
| 2026-04-15 21:57 | 40.07596 | 3.98225 | 14292 ft | 356 kts | 310° |
| 2026-04-15 21:57 | 40.09120 | 3.95652 | 14917 ft | 359 kts | 311° |
| 2026-04-15 21:57 | 40.10709 | 3.93129 | 15528 ft | 361 kts | 313° |
| 2026-04-15 21:57 | 40.12307 | 3.90625 | 16146 ft | 364 kts | 313° |
| 2026-04-15 21:58 | 40.13914 | 3.88032 | 16794 ft | 368 kts | 312° |
| 2026-04-15 21:58 | 40.15524 | 3.85405 | 17453 ft | 371 kts | 312° |
| 2026-04-15 21:58 | 40.17163 | 3.82765 | 18122 ft | 374 kts | 313° |
| 2026-04-15 21:58 | 40.18816 | 3.80115 | 18747 ft | 377 kts | 313° |
| 2026-04-15 21:59 | 40.20457 | 3.77466 | 19390 ft | 379 kts | 312° |
| 2026-04-15 21:59 | 40.22120 | 3.74770 | 20019 ft | 382 kts | 312° |
| 2026-04-15 21:59 | 40.23805 | 3.72047 | 20667 ft | 385 kts | 312° |
| 2026-04-15 21:59 | 40.25500 | 3.69307 | 21311 ft | 388 kts | 312° |
| 2026-04-15 22:00 | 40.27184 | 3.66578 | 21944 ft | 392 kts | 312° |
| 2026-04-15 22:00 | 40.28903 | 3.63789 | 22590 ft | 395 kts | 312° |
| 2026-04-15 22:00 | 40.30639 | 3.60971 | 23209 ft | 399 kts | 311° |
| 2026-04-15 22:00 | 40.32385 | 3.58135 | 23832 ft | 402 kts | 311° |
| 2026-04-15 22:01 | 40.34150 | 3.55265 | 24374 ft | 405 kts | 311° |
| 2026-04-15 22:01 | 40.35924 | 3.52376 | 24939 ft | 406 kts | 311° |
| 2026-04-15 22:01 | 40.37701 | 3.49481 | 25495 ft | 408 kts | 311° |
| 2026-04-15 22:01 | 40.39488 | 3.46568 | 26043 ft | 411 kts | 311° |
| 2026-04-15 22:02 | 40.41283 | 3.43637 | 26588 ft | 413 kts | 311° |
| 2026-04-15 22:02 | 40.43156 | 3.40775 | 27107 ft | 414 kts | 316° |
| 2026-04-15 22:02 | 40.45313 | 3.38274 | 27618 ft | 415 kts | 323° |
| 2026-04-15 22:02 | 40.47715 | 3.36146 | 28144 ft | 417 kts | 328° |
| 2026-04-15 22:03 | 40.50156 | 3.34144 | 28664 ft | 419 kts | 328° |
| 2026-04-15 22:03 | 40.52625 | 3.32080 | 29193 ft | 422 kts | 328° |
| 2026-04-15 22:03 | 40.55124 | 3.29993 | 29709 ft | 425 kts | 328° |
| 2026-04-15 22:03 | 40.57635 | 3.27914 | 30210 ft | 427 kts | 328° |
| 2026-04-15 22:04 | 40.60159 | 3.25824 | 30642 ft | 430 kts | 328° |
| 2026-04-15 22:04 | 40.62701 | 3.23705 | 31070 ft | 432 kts | 328° |
| 2026-04-15 22:04 | 40.65238 | 3.21587 | 31661 ft | 430 kts | 327° |
| 2026-04-15 22:04 | 40.67755 | 3.19490 | 32329 ft | 427 kts | 327° |
| 2026-04-15 22:05 | 40.70235 | 3.17423 | 32954 ft | 425 kts | 327° |
| 2026-04-15 22:05 | 40.72726 | 3.15343 | 33598 ft | 423 kts | 327° |
| 2026-04-15 22:05 | 40.75203 | 3.13270 | 34243 ft | 420 kts | 327° |
| 2026-04-15 22:05 | 40.77670 | 3.11206 | 34808 ft | 419 kts | 327° |
| 2026-04-15 22:06 | 40.80129 | 3.09148 | 35355 ft | 417 kts | 327° |
| 2026-04-15 22:06 | 40.82580 | 3.07094 | 35889 ft | 416 kts | 327° |
| 2026-04-15 22:06 | 40.85027 | 3.05040 | 36420 ft | 415 kts | 327° |
| 2026-04-15 22:06 | 40.87438 | 3.03016 | 36936 ft | 415 kts | 327° |
| 2026-04-15 22:07 | 40.89887 | 3.00958 | 37440 ft | 416 kts | 327° |
| 2026-04-15 22:07 | 40.92325 | 2.98907 | 37994 ft | 414 kts | 327° |
| 2026-04-15 22:07 | 40.94758 | 2.96858 | 38554 ft | 413 kts | 327° |
| 2026-04-15 22:07 | 40.97179 | 2.94818 | 39052 ft | 412 kts | 327° |
| 2026-04-15 22:08 | 40.99610 | 2.92768 | 39437 ft | 413 kts | 327° |
| 2026-04-15 22:08 | 41.02004 | 2.90747 | 39797 ft | 414 kts | 327° |
| 2026-04-15 22:08 | 41.04438 | 2.88691 | 40151 ft | 415 kts | 327° |
| 2026-04-15 22:08 | 41.06872 | 2.86632 | 40499 ft | 416 kts | 327° |
| 2026-04-15 22:09 | 41.09318 | 2.84561 | 40849 ft | 417 kts | 327° |
| 2026-04-15 22:09 | 41.11770 | 2.82485 | 41192 ft | 418 kts | 326° |
| 2026-04-15 22:09 | 41.14233 | 2.80396 | 41531 ft | 419 kts | 326° |
| 2026-04-15 22:09 | 41.16698 | 2.78304 | 41892 ft | 420 kts | 326° |
| 2026-04-15 22:10 | 41.19129 | 2.76239 | 42230 ft | 421 kts | 326° |
| 2026-04-15 22:10 | 41.21603 | 2.74136 | 42570 ft | 421 kts | 326° |
| 2026-04-15 22:10 | 41.24077 | 2.72030 | 42909 ft | 422 kts | 326° |
| 2026-04-15 22:10 | 41.26556 | 2.69918 | 43199 ft | 422 kts | 326° |
| 2026-04-15 22:11 | 41.29066 | 2.67778 | 43175 ft | 431 kts | 326° |
| 2026-04-15 22:11 | 41.34162 | 2.63426 | 43193 ft | 446 kts | 326° |
| 2026-04-15 22:12 | 41.39477 | 2.58880 | 43198 ft | 460 kts | 326° |
| 2026-04-15 22:12 | 41.44942 | 2.54196 | 43190 ft | 473 kts | 326° |
| 2026-04-15 22:13 | 41.50526 | 2.49400 | 43192 ft | 478 kts | 326° |
| 2026-04-15 22:13 | 41.56079 | 2.44622 | 43188 ft | 476 kts | 325° |
| 2026-04-15 22:14 | 41.61651 | 2.39815 | 43184 ft | 475 kts | 325° |
| 2026-04-15 22:14 | 41.67171 | 2.35045 | 43179 ft | 475 kts | 325° |
| 2026-04-15 22:15 | 41.72734 | 2.30227 | 43188 ft | 476 kts | 325° |
| 2026-04-15 22:15 | 41.78558 | 2.26052 | 43172 ft | 482 kts | 337° |
| 2026-04-15 22:16 | 41.84984 | 2.23278 | 43182 ft | 484 kts | 339° |
| 2026-04-15 22:16 | 41.91408 | 2.20496 | 43183 ft | 484 kts | 339° |
| 2026-04-15 22:17 | 41.97787 | 2.17753 | 43187 ft | 485 kts | 339° |
| 2026-04-15 22:17 | 42.04256 | 2.14953 | 43186 ft | 489 kts | 339° |
| 2026-04-15 22:18 | 42.10727 | 2.12152 | 43187 ft | 487 kts | 339° |
| 2026-04-15 22:18 | 42.17185 | 2.09348 | 43187 ft | 487 kts | 339° |
| 2026-04-15 22:19 | 42.23590 | 2.06561 | 43195 ft | 487 kts | 339° |
| 2026-04-15 22:19 | 42.30063 | 2.03740 | 43205 ft | 486 kts | 339° |
| 2026-04-15 22:20 | 42.36537 | 2.01059 | 43192 ft | 489 kts | 344° |
| 2026-04-15 22:20 | 42.43351 | 1.99989 | 43222 ft | 494 kts | 351° |
| 2026-04-15 22:21 | 42.50157 | 1.99081 | 43225 ft | 493 kts | 350° |
| 2026-04-15 22:21 | 42.57009 | 1.98188 | 43242 ft | 493 kts | 351° |
| 2026-04-15 22:22 | 42.63845 | 1.97291 | 43245 ft | 493 kts | 351° |
| 2026-04-15 22:22 | 42.70639 | 1.96392 | 43248 ft | 494 kts | 351° |
| 2026-04-15 22:23 | 42.76333 | 1.95646 | 43245 ft | 494 kts | 351° |
| 2026-04-15 22:23 | 42.84307 | 1.94587 | 43247 ft | 494 kts | 351° |
| 2026-04-15 22:24 | 42.90007 | 1.93835 | 43246 ft | 494 kts | 351° |
| 2026-04-15 22:24 | 42.96854 | 1.92923 | 43243 ft | 494 kts | 351° |
| 2026-04-15 22:25 | 43.03709 | 1.92011 | 43234 ft | 496 kts | 351° |
| 2026-04-15 22:25 | 43.10560 | 1.91097 | 43230 ft | 496 kts | 351° |
| 2026-04-15 22:26 | 43.17455 | 1.90176 | 43226 ft | 496 kts | 350° |
| 2026-04-15 22:26 | 43.24329 | 1.89253 | 43233 ft | 497 kts | 350° |
| 2026-04-15 22:27 | 43.31236 | 1.88326 | 43228 ft | 498 kts | 350° |
| 2026-04-15 22:27 | 43.38102 | 1.87403 | 43230 ft | 498 kts | 350° |
| 2026-04-15 22:28 | 43.44998 | 1.86471 | 43230 ft | 499 kts | 350° |
| 2026-04-15 22:28 | 43.51918 | 1.85536 | 43233 ft | 499 kts | 351° |
| 2026-04-15 22:29 | 43.58797 | 1.84603 | 43234 ft | 499 kts | 350° |
| 2026-04-15 22:29 | 43.65723 | 1.83662 | 43238 ft | 500 kts | 351° |
| 2026-04-15 22:30 | 43.72658 | 1.82718 | 43237 ft | 500 kts | 351° |
| 2026-04-15 22:30 | 43.79585 | 1.81772 | 43236 ft | 500 kts | 351° |
| 2026-04-15 22:31 | 43.86474 | 1.80829 | 43235 ft | 501 kts | 351° |
| 2026-04-15 22:31 | 43.93411 | 1.79879 | 43237 ft | 501 kts | 351° |
| 2026-04-15 22:32 | 44.00357 | 1.78923 | 43235 ft | 500 kts | 351° |
| 2026-04-15 22:32 | 44.07280 | 1.77969 | 43235 ft | 502 kts | 351° |
| 2026-04-15 22:33 | 44.14238 | 1.77008 | 43238 ft | 502 kts | 351° |
| 2026-04-15 22:33 | 44.21193 | 1.76046 | 43236 ft | 502 kts | 351° |
| 2026-04-15 22:34 | 44.28154 | 1.75052 | 43237 ft | 504 kts | 349° |
| 2026-04-15 22:34 | 44.34872 | 1.72560 | 43237 ft | 497 kts | 338° |
| 2026-04-15 22:35 | 44.41416 | 1.69600 | 43261 ft | 498 kts | 339° |
| 2026-04-15 22:35 | 44.48051 | 1.66701 | 43240 ft | 499 kts | 339° |
| 2026-04-15 22:36 | 44.54672 | 1.63719 | 43241 ft | 499 kts | 339° |
| 2026-04-15 22:36 | 44.61302 | 1.60783 | 43252 ft | 499 kts | 339° |
| 2026-04-15 22:37 | 44.67894 | 1.57820 | 43241 ft | 499 kts | 339° |
| 2026-04-15 22:37 | 44.74523 | 1.54856 | 43240 ft | 499 kts | 339° |
| 2026-04-15 22:38 | 44.81160 | 1.51868 | 43248 ft | 500 kts | 339° |
| 2026-04-15 22:38 | 44.87741 | 1.48905 | 43243 ft | 500 kts | 339° |
| 2026-04-15 22:39 | 44.94373 | 1.45909 | 43246 ft | 499 kts | 339° |
| 2026-04-15 22:39 | 45.01012 | 1.42903 | 43239 ft | 500 kts | 339° |
| 2026-04-15 22:40 | 45.07605 | 1.39912 | 43243 ft | 500 kts | 339° |
| 2026-04-15 22:40 | 45.14231 | 1.36896 | 43244 ft | 499 kts | 339° |
| 2026-04-15 22:41 | 45.24155 | 1.32368 | 43247 ft | 501 kts | 339° |
| 2026-04-15 22:41 | 45.30794 | 1.29328 | 43252 ft | 501 kts | 339° |
| 2026-04-15 22:42 | 45.37431 | 1.26283 | 43256 ft | 500 kts | 339° |
| 2026-04-15 22:42 | 45.44068 | 1.23230 | 43258 ft | 501 kts | 338° |
| 2026-04-15 22:43 | 45.50715 | 1.20165 | 43260 ft | 501 kts | 338° |
| 2026-04-15 22:43 | 45.57317 | 1.17112 | 43280 ft | 501 kts | 338° |
| 2026-04-15 22:44 | 45.63971 | 1.14029 | 43261 ft | 503 kts | 338° |
| 2026-04-15 22:44 | 45.70633 | 1.10933 | 43266 ft | 503 kts | 338° |
| 2026-04-15 22:45 | 45.77255 | 1.07849 | 43280 ft | 503 kts | 338° |
| 2026-04-15 22:45 | 45.83923 | 1.04735 | 43268 ft | 503 kts | 338° |
| 2026-04-15 22:46 | 45.90591 | 1.01614 | 43267 ft | 503 kts | 338° |
| 2026-04-15 22:46 | 45.97227 | 0.98499 | 43281 ft | 503 kts | 338° |
| 2026-04-15 22:47 | 46.03910 | 0.95355 | 43261 ft | 504 kts | 338° |
| 2026-04-15 22:47 | 46.10588 | 0.92205 | 43249 ft | 504 kts | 338° |
| 2026-04-15 22:48 | 46.17261 | 0.89049 | 43260 ft | 504 kts | 338° |
| 2026-04-15 22:48 | 46.23938 | 0.85884 | 43255 ft | 505 kts | 338° |
| 2026-04-15 22:49 | 46.30576 | 0.82728 | 43245 ft | 505 kts | 338° |
| 2026-04-15 22:49 | 46.37262 | 0.79542 | 43257 ft | 505 kts | 338° |
| 2026-04-15 22:50 | 46.43932 | 0.76356 | 43235 ft | 504 kts | 338° |
| 2026-04-15 22:50 | 46.50608 | 0.73157 | 43234 ft | 504 kts | 338° |
| 2026-04-15 22:51 | 46.57239 | 0.69973 | 43251 ft | 504 kts | 338° |
| 2026-04-15 22:51 | 46.63938 | 0.66748 | 43225 ft | 505 kts | 338° |
| 2026-04-15 22:52 | 46.70568 | 0.63547 | 43227 ft | 505 kts | 338° |
| 2026-04-15 22:52 | 46.77241 | 0.60317 | 43227 ft | 505 kts | 338° |
| 2026-04-15 22:53 | 46.83909 | 0.57082 | 43053 ft | 500 kts | 338° |
| 2026-04-15 22:53 | 46.87195 | 0.55486 | 42352 ft | 492 kts | 337° |
| 2026-04-15 22:53 | 46.90403 | 0.53927 | 41711 ft | 478 kts | 337° |
| 2026-04-15 22:54 | 46.93519 | 0.52408 | 41094 ft | 465 kts | 337° |
| 2026-04-15 22:54 | 46.96559 | 0.50923 | 40493 ft | 454 kts | 337° |
| 2026-04-15 22:54 | 46.99514 | 0.49478 | 39907 ft | 444 kts | 336° |
| 2026-04-15 22:54 | 47.02382 | 0.48074 | 39344 ft | 437 kts | 336° |
| 2026-04-15 22:55 | 47.05258 | 0.46664 | 38749 ft | 434 kts | 336° |
| 2026-04-15 22:55 | 47.08134 | 0.45324 | 38135 ft | 434 kts | 340° |
| 2026-04-15 22:55 | 47.11132 | 0.44487 | 37575 ft | 442 kts | 345° |
| 2026-04-15 22:55 | 47.14201 | 0.43780 | 36987 ft | 451 kts | 346° |
| 2026-04-15 22:56 | 47.17320 | 0.43036 | 36389 ft | 456 kts | 345° |
| 2026-04-15 22:56 | 47.20462 | 0.42254 | 35779 ft | 459 kts | 345° |
| 2026-04-15 22:56 | 47.23627 | 0.41470 | 35166 ft | 460 kts | 345° |
| 2026-04-15 22:56 | 47.26803 | 0.40706 | 34554 ft | 460 kts | 344° |
| 2026-04-15 22:57 | 47.29917 | 0.39956 | 33945 ft | 458 kts | 344° |
| 2026-04-15 22:57 | 47.33068 | 0.39179 | 33334 ft | 458 kts | 344° |
| 2026-04-15 22:57 | 47.36220 | 0.38396 | 32727 ft | 460 kts | 344° |
| 2026-04-15 22:57 | 47.39391 | 0.37620 | 32132 ft | 463 kts | 344° |
| 2026-04-15 22:58 | 47.42580 | 0.36844 | 31501 ft | 465 kts | 344° |
| 2026-04-15 22:58 | 47.45775 | 0.36058 | 30885 ft | 466 kts | 344° |
| 2026-04-15 22:58 | 47.48977 | 0.35265 | 30267 ft | 466 kts | 344° |
| 2026-04-15 22:58 | 47.52127 | 0.34490 | 29626 ft | 460 kts | 344° |
| 2026-04-15 22:59 | 47.55267 | 0.33713 | 29022 ft | 455 kts | 344° |
| 2026-04-15 22:59 | 47.58379 | 0.32938 | 28430 ft | 451 kts | 344° |
| 2026-04-15 22:59 | 47.61470 | 0.32167 | 27839 ft | 448 kts | 344° |
| 2026-04-15 22:59 | 47.64498 | 0.31415 | 27255 ft | 443 kts | 344° |
| 2026-04-15 23:00 | 47.67530 | 0.30661 | 26675 ft | 439 kts | 344° |
| 2026-04-15 23:00 | 47.70539 | 0.29909 | 26097 ft | 436 kts | 344° |
| 2026-04-15 23:00 | 47.73517 | 0.29164 | 25527 ft | 433 kts | 344° |
| 2026-04-15 23:00 | 47.76482 | 0.28455 | 24953 ft | 431 kts | 346° |
| 2026-04-15 23:01 | 47.79510 | 0.28536 | 24363 ft | 441 kts | 2° |
| 2026-04-15 23:01 | 47.82485 | 0.29794 | 23833 ft | 448 kts | 17° |
| 2026-04-15 23:01 | 47.85194 | 0.32135 | 23310 ft | 451 kts | 30° |
| 2026-04-15 23:01 | 47.87756 | 0.34823 | 22816 ft | 450 kts | 31° |
| 2026-04-15 23:02 | 47.90303 | 0.37528 | 22308 ft | 445 kts | 31° |
| 2026-04-15 23:02 | 47.92746 | 0.40094 | 21829 ft | 426 kts | 30° |
| 2026-04-15 23:02 | 47.95135 | 0.42582 | 21329 ft | 412 kts | 30° |
| 2026-04-15 23:02 | 47.97453 | 0.45005 | 20892 ft | 404 kts | 30° |
| 2026-04-15 23:03 | 47.99750 | 0.47419 | 20444 ft | 402 kts | 30° |
| 2026-04-15 23:03 | 48.02040 | 0.49827 | 20006 ft | 403 kts | 31° |
| 2026-04-15 23:03 | 48.04335 | 0.52241 | 19543 ft | 402 kts | 31° |
| 2026-04-15 23:03 | 48.06620 | 0.54650 | 19095 ft | 400 kts | 31° |
| 2026-04-15 23:04 | 48.08860 | 0.57012 | 18653 ft | 397 kts | 31° |
| 2026-04-15 23:04 | 48.11114 | 0.59392 | 18170 ft | 394 kts | 31° |
| 2026-04-15 23:04 | 48.13345 | 0.61752 | 17724 ft | 390 kts | 31° |
| 2026-04-15 23:04 | 48.15553 | 0.64087 | 17285 ft | 386 kts | 31° |
| 2026-04-15 23:05 | 48.17741 | 0.66404 | 16852 ft | 383 kts | 31° |
| 2026-04-15 23:05 | 48.19908 | 0.68703 | 16422 ft | 380 kts | 31° |
| 2026-04-15 23:05 | 48.22061 | 0.70987 | 15997 ft | 376 kts | 32° |
| 2026-04-15 23:05 | 48.24161 | 0.73219 | 15584 ft | 373 kts | 32° |
| 2026-04-15 23:06 | 48.26275 | 0.75467 | 15164 ft | 370 kts | 32° |
| 2026-04-15 23:06 | 48.28366 | 0.77694 | 14750 ft | 366 kts | 32° |
| 2026-04-15 23:06 | 48.30440 | 0.79905 | 14339 ft | 364 kts | 32° |
| 2026-04-15 23:06 | 48.32493 | 0.82094 | 13920 ft | 360 kts | 32° |
| 2026-04-15 23:07 | 48.34437 | 0.84446 | 13444 ft | 360 kts | 44° |
| 2026-04-15 23:07 | 48.35689 | 0.87299 | 13089 ft | 359 kts | 60° |
| 2026-04-15 23:07 | 48.36839 | 0.90628 | 12728 ft | 358 kts | 62° |
| 2026-04-15 23:07 | 48.37968 | 0.93957 | 12335 ft | 357 kts | 61° |
| 2026-04-15 23:08 | 48.39117 | 0.97265 | 11927 ft | 355 kts | 60° |
| 2026-04-15 23:08 | 48.40264 | 1.00540 | 11524 ft | 353 kts | 60° |
| 2026-04-15 23:08 | 48.41396 | 1.03815 | 11194 ft | 345 kts | 61° |
| 2026-04-15 23:08 | 48.42457 | 1.06912 | 11183 ft | 321 kts | 61° |
| 2026-04-15 23:09 | 48.43451 | 1.09802 | 11194 ft | 313 kts | 60° |
| 2026-04-15 23:09 | 48.44472 | 1.12755 | 11190 ft | 321 kts | 60° |
| 2026-04-15 23:09 | 48.45545 | 1.15867 | 11053 ft | 350 kts | 61° |
| 2026-04-15 23:09 | 48.46673 | 1.19159 | 10722 ft | 349 kts | 61° |
| 2026-04-15 23:10 | 48.47755 | 1.22330 | 10363 ft | 330 kts | 61° |
| 2026-04-15 23:10 | 48.48766 | 1.25284 | 10022 ft | 314 kts | 61° |
| 2026-04-15 23:10 | 48.49757 | 1.28173 | 9675 ft | 305 kts | 61° |
| 2026-04-15 23:10 | 48.50721 | 1.30994 | 9355 ft | 301 kts | 62° |
| 2026-04-15 23:11 | 48.51674 | 1.33786 | 9052 ft | 300 kts | 62° |
| 2026-04-15 23:11 | 48.52639 | 1.36596 | 8744 ft | 302 kts | 61° |
| 2026-04-15 23:11 | 48.53609 | 1.39410 | 8430 ft | 303 kts | 62° |
| 2026-04-15 23:11 | 48.54577 | 1.42232 | 8113 ft | 302 kts | 62° |
| 2026-04-15 23:12 | 48.55215 | 1.44096 | 7904 ft | 300 kts | 62° |
| 2026-04-15 23:12 | 48.56486 | 1.47810 | 7484 ft | 297 kts | 62° |
| 2026-04-15 23:12 | 48.57123 | 1.49647 | 7279 ft | 294 kts | 60° |
| 2026-04-15 23:12 | 48.58851 | 1.52643 | 7183 ft | 278 kts | 41° |
| 2026-04-15 23:13 | 48.59795 | 1.53980 | 7189 ft | 283 kts | 41° |
| 2026-04-15 23:13 | 48.61237 | 1.56058 | 7192 ft | 289 kts | 41° |
| 2026-04-15 23:13 | 48.62689 | 1.58182 | 7194 ft | 290 kts | 42° |
| 2026-04-15 23:13 | 48.64147 | 1.60307 | 7199 ft | 291 kts | 41° |
| 2026-04-15 23:14 | 48.65620 | 1.62442 | 7188 ft | 293 kts | 41° |
| 2026-04-15 23:14 | 48.67087 | 1.64575 | 7190 ft | 294 kts | 41° |
| 2026-04-15 23:14 | 48.68566 | 1.66729 | 7188 ft | 293 kts | 42° |
| 2026-04-15 23:14 | 48.70017 | 1.68845 | 7188 ft | 293 kts | 42° |
| 2026-04-15 23:15 | 48.71494 | 1.70999 | 7187 ft | 293 kts | 41° |
| 2026-04-15 23:15 | 48.72966 | 1.73148 | 7183 ft | 293 kts | 42° |
| 2026-04-15 23:15 | 48.74427 | 1.75285 | 7176 ft | 292 kts | 41° |
| 2026-04-15 23:15 | 48.75650 | 1.77723 | 7116 ft | 293 kts | 64° |
| 2026-04-15 23:16 | 48.76081 | 1.80719 | 7172 ft | 292 kts | 85° |
| 2026-04-15 23:16 | 48.76204 | 1.83820 | 7192 ft | 295 kts | 88° |
| 2026-04-15 23:16 | 48.76299 | 1.86895 | 7189 ft | 295 kts | 87° |
| 2026-04-15 23:16 | 48.76423 | 1.90003 | 7192 ft | 294 kts | 86° |
| 2026-04-15 23:17 | 48.76556 | 1.93106 | 7190 ft | 294 kts | 86° |
| 2026-04-15 23:17 | 48.76679 | 1.96210 | 7190 ft | 295 kts | 87° |
| 2026-04-15 23:17 | 48.76796 | 1.99271 | 7190 ft | 294 kts | 87° |
| 2026-04-15 23:17 | 48.76916 | 2.02372 | 7167 ft | 295 kts | 87° |
| 2026-04-15 23:18 | 48.77037 | 2.05506 | 6895 ft | 300 kts | 87° |
| 2026-04-15 23:18 | 48.77159 | 2.08663 | 6628 ft | 299 kts | 87° |
| 2026-04-15 23:18 | 48.77278 | 2.11803 | 6353 ft | 296 kts | 86° |
| 2026-04-15 23:18 | 48.77395 | 2.14907 | 6131 ft | 291 kts | 87° |
| 2026-04-15 23:19 | 48.77507 | 2.17917 | 6128 ft | 281 kts | 87° |
| 2026-04-15 23:19 | 48.77615 | 2.20826 | 6119 ft | 280 kts | 87° |
| 2026-04-15 23:19 | 48.77871 | 2.23779 | 6081 ft | 285 kts | 76° |
| 2026-04-15 23:19 | 48.78428 | 2.26690 | 6089 ft | 287 kts | 73° |
| 2026-04-15 23:20 | 48.78980 | 2.29563 | 6101 ft | 287 kts | 74° |
| 2026-04-15 23:20 | 48.79516 | 2.32493 | 6110 ft | 288 kts | 74° |
| 2026-04-15 23:20 | 48.80051 | 2.35434 | 6117 ft | 288 kts | 74° |
| 2026-04-15 23:20 | 48.80592 | 2.38366 | 6119 ft | 288 kts | 74° |
| 2026-04-15 23:21 | 48.81128 | 2.41261 | 6119 ft | 289 kts | 74° |
| 2026-04-15 23:21 | 48.81667 | 2.44197 | 6117 ft | 288 kts | 74° |
| 2026-04-15 23:21 | 48.82205 | 2.47132 | 6116 ft | 288 kts | 74° |
| 2026-04-15 23:21 | 48.82742 | 2.50065 | 6117 ft | 288 kts | 74° |
| 2026-04-15 23:22 | 48.83279 | 2.53003 | 6117 ft | 288 kts | 74° |
| 2026-04-15 23:22 | 48.83808 | 2.55900 | 6114 ft | 288 kts | 74° |
| 2026-04-15 23:22 | 48.84346 | 2.58850 | 5995 ft | 291 kts | 74° |
| 2026-04-15 23:22 | 48.84887 | 2.61821 | 5777 ft | 292 kts | 74° |
| 2026-04-15 23:23 | 48.85427 | 2.64793 | 5529 ft | 291 kts | 74° |
| 2026-04-15 23:23 | 48.85960 | 2.67735 | 5276 ft | 284 kts | 74° |
| 2026-04-15 23:23 | 48.86471 | 2.70556 | 5033 ft | 276 kts | 74° |
| 2026-04-15 23:23 | 48.86977 | 2.73350 | 4782 ft | 272 kts | 73° |
| 2026-04-15 23:24 | 48.87484 | 2.76098 | 4543 ft | 269 kts | 72° |
| 2026-04-15 23:24 | 48.88412 | 2.78496 | 4234 ft | 266 kts | 45° |
| 2026-04-15 23:24 | 48.89883 | 2.80116 | 4013 ft | 260 kts | 21° |
| 2026-04-15 23:24 | 48.91610 | 2.80726 | 3805 ft | 253 kts | 358° |
| 2026-04-15 23:25 | 48.93317 | 2.80304 | 3598 ft | 247 kts | 336° |
| 2026-04-15 23:25 | 48.94761 | 2.78984 | 3389 ft | 241 kts | 315° |
| 2026-04-15 23:25 | 48.95772 | 2.76998 | 3175 ft | 236 kts | 295° |
| 2026-04-15 23:25 | 48.96243 | 2.74634 | 2977 ft | 233 kts | 276° |
| 2026-04-15 23:26 | 48.96343 | 2.72228 | 2988 ft | 225 kts | 272° |
| 2026-04-15 23:26 | 48.96454 | 2.69847 | 2990 ft | 226 kts | 273° |
| 2026-04-15 23:26 | 48.96564 | 2.67448 | 2988 ft | 224 kts | 272° |
| 2026-04-15 23:26 | 48.96661 | 2.65169 | 2833 ft | 214 kts | 272° |
| 2026-04-15 23:27 | 48.96747 | 2.63086 | 2551 ft | 179 kts | 272° |
| 2026-04-15 23:27 | 48.96819 | 2.61349 | 2322 ft | 151 kts | 271° |
| 2026-04-15 23:27 | 48.96880 | 2.59879 | 2128 ft | 128 kts | 272° |
| 2026-04-15 23:27 | 48.96932 | 2.58639 | 1969 ft | 109 kts | 271° |
| 2026-04-15 23:28 | 48.96974 | 2.57519 | 1761 ft | 106 kts | 270° |
| 2026-04-15 23:28 | 48.96995 | 2.56372 | 1491 ft | 109 kts | 270° |
| 2026-04-15 23:28 | 48.97013 | 2.55228 | 1297 ft | 107 kts | 268° |
| 2026-04-15 23:28 | 48.97011 | 2.54076 | 1117 ft | 111 kts | 266° |
| 2026-04-15 23:29 | 48.96969 | 2.52902 | 1036 ft | 111 kts | 263° |
| 2026-04-15 23:29 | 48.96906 | 2.51736 | 907 ft | 115 kts | 260° |
| 2026-04-15 23:29 | 48.96831 | 2.50502 | 775 ft | 120 kts | 262° |
| 2026-04-15 23:29 | 48.96764 | 2.49252 | 636 ft | 117 kts | 263° |
| 2026-04-15 23:30 | 48.96705 | 2.48020 | 566 ft | 117 kts | 263° |
| 2026-04-15 23:30 | 48.96620 | 2.46783 | 481 ft | 120 kts | 260° |
| 2026-04-15 23:30 | 48.96565 | 2.45508 | 354 ft | 122 kts | 262° |
| 2026-04-15 23:30 | 48.96489 | 2.44199 | 206 ft | 125 kts | 262° |
| 2026-04-15 23:31 | 48.96432 | 2.43054 | 165 ft | 75 kts | 265° |
| 2026-04-15 23:31 | 48.96410 | 2.42623 | 160 ft | 28 kts | 265° |
| 2026-04-15 23:31 | 48.96336 | 2.42496 | 158 ft | 8 kts | 174° |
| 2026-04-15 23:31 | 48.96330 | 2.42497 | 158 ft | 1 kts | 174° |
| 2026-04-15 23:32 | 48.96308 | 2.42500 | 158 ft | 8 kts | 173° |
| 2026-04-15 23:32 | 48.96237 | 2.42596 | 158 ft | 19 kts | 126° |
| 2026-04-15 23:32 | 48.96154 | 2.42766 | 152 ft | 22 kts | 127° |
| 2026-04-15 23:32 | 48.96056 | 2.42948 | 149 ft | 22 kts | 130° |
| 2026-04-15 23:33 | 48.95987 | 2.43072 | 152 ft | 8 kts | 130° |
| 2026-04-15 23:33 | 48.95955 | 2.43139 | 153 ft | 8 kts | 125° |
| 2026-04-15 23:33 | 48.95934 | 2.43204 | 155 ft | 5 kts | 109° |
| 2026-04-15 23:33 | 48.95924 | 2.43251 | 156 ft | 5 kts | 109° |
| 2026-04-15 23:34 | 48.95902 | 2.43330 | 157 ft | 12 kts | 116° |
| 2026-04-15 23:34 | 48.95849 | 2.43500 | 160 ft | 21 kts | 114° |
| 2026-04-15 23:34 | 48.95775 | 2.43672 | 153 ft | 14 kts | 169° |
| 2026-04-15 23:36 | 48.95680 | 2.43739 | 150 ft | 0 kts | 197° |